Time;durP1;ratioP1;P1;durP2;ratioP2;P2;SDS_P1;SDS_P2;PMS_P1;PMS_P2;Temp;Humidity;BMP_temperature;BMP_pressure;BME280_temperature;BME280_humidity;BME280_pressure;Samples;Min_cycle;Max_cycle;Signal;HPM_P1;HPM_P2
2022/05/19 00:00:06;;;;;;;2.97;1.83;;;;;;;27.54;54.64;100701.59;5034052;28;20125;-62
2022/05/19 00:02:50;;;;;;;2.35;1.80;;;;;;;27.53;55.00;100699.94;5033740;28;20048;-62
2022/05/19 00:05:34;;;;;;;;;;;;;;;27.48;54.98;100695.19;5034153;28;20055;-62
2022/05/19 00:08:18;;;;;;;4.38;2.20;;;;;;;27.50;54.85;100693.03;5034596;28;20014;-62
2022/05/19 00:11:05;;;;;;;2.28;2.00;;;;;;;27.52;55.02;100695.53;5033853;28;20052;-62
2022/05/19 00:13:49;;;;;;;2.92;1.70;;;;;;;27.51;54.77;100691.94;5033843;28;20100;-62
2022/05/19 00:16:33;;;;;;;;;;;;;;;27.47;55.00;100690.78;5035458;28;20052;-62
2022/05/19 00:19:18;;;;;;;2.13;1.90;;;;;;;27.48;54.89;100686.97;5034353;28;19920;-62
2022/05/19 00:22:02;;;;;;;3.53;2.08;;;;;;;27.50;54.73;100693.03;5034330;28;20052;-62
2022/05/19 00:24:46;;;;;;;2.13;1.85;;;;;;;27.48;55.00;100697.94;5033560;28;20048;-62
2022/05/19 00:27:29;;;;;;;;;;;;;;;27.44;55.09;100691.28;5033704;28;20047;-62
2022/05/19 00:30:13;;;;;;;4.05;1.95;;;;;;;27.46;54.86;100694.59;5033248;28;19963;-62
2022/05/19 00:32:57;;;;;;;3.30;2.05;;;;;;;27.47;55.21;100690.78;5034333;28;20107;-62
2022/05/19 00:35:42;;;;;;;2.40;1.80;;;;;;;27.48;54.91;100692.44;5034111;28;20084;-62
2022/05/19 00:38:26;;;;;;;1.92;1.73;;;;;;;27.45;54.99;100687.47;5033256;28;20087;-62
2022/05/19 00:41:11;;;;;;;1.75;1.65;;;;;;;27.47;55.03;100689.94;5034277;28;20099;-62
2022/05/19 00:43:57;;;;;;;2.88;1.92;;;;;;;27.47;55.11;100684.47;5034224;28;20502;-62
2022/05/19 00:46:45;;;;;;;2.45;1.80;;;;;;;27.47;55.34;100687.19;5033141;28;20051;-62
2022/05/19 00:49:39;;;;;;;2.08;1.67;;;;;;;27.46;55.01;100689.13;5032750;28;20052;-62
2022/05/19 00:52:34;;;;;;;1.75;1.60;;;;;;;27.45;55.24;100687.47;5033113;28;20581;-62
2022/05/19 00:55:22;;;;;;;1.92;1.70;;;;;;;27.44;55.35;100684.97;5034002;28;20096;-62
2022/05/19 00:58:16;;;;;;;2.03;1.75;;;;;;;27.45;55.03;100678.41;5018933;28;20052;-62
2022/05/19 01:01:00;;;;;;;4.15;2.10;;;;;;;27.43;55.21;100678.63;5033002;28;20040;-62
2022/05/19 01:03:53;;;;;;;;;;;;;;;27.38;55.55;100683.19;5033286;28;20061;-62
2022/05/19 01:06:38;;;;;;;1.88;1.73;;;;;;;27.41;55.26;100679.97;5032883;28;19936;-62
2022/05/19 01:09:23;;;;;;;1.83;1.70;;;;;;;27.41;55.41;100686.28;5032820;28;20144;-62
2022/05/19 01:12:09;;;;;;;1.73;1.63;;;;;;;27.40;55.34;100681.88;5033503;28;20095;-62
2022/05/19 01:14:53;;;;;;;2.10;1.90;;;;;;;27.40;55.41;100681.06;5033702;28;20103;-62
2022/05/19 01:17:37;;;;;;;;;;;;;;;27.35;55.53;100687.25;5033151;28;20083;-62
2022/05/19 01:20:24;;;;;;;2.33;1.85;;;;;;;27.38;55.56;100678.56;5033614;28;20273;-62
2022/05/19 01:23:43;;;;;;;2.17;1.67;;;;;;;27.39;55.23;100679.38;5032667;28;20125;-62
2022/05/19 01:26:27;;;;;;;2.83;2.28;;;;;;;27.38;55.46;100672.22;5033569;28;20136;-62
2022/05/19 01:29:11;;;;;;;;;;;;;;;27.32;55.47;100676.78;5033642;28;20523;-63
2022/05/19 01:31:58;;;;;;;1.67;1.58;;;;;;;27.35;55.66;100681.78;5033566;28;20289;-62
2022/05/19 01:34:42;;;;;;;2.38;1.70;;;;;;;27.36;55.51;100677.13;5033145;28;20053;-62
2022/05/19 01:37:26;;;;;;;;;;;;;;;27.30;55.73;100676.19;5033898;28;20096;-62
2022/05/19 01:40:35;;;;;;;3.38;1.88;;;;;;;27.32;55.71;100671.28;5033456;28;19920;-62
2022/05/19 01:44:04;;;;;;;2.88;2.20;;;;;;;27.32;55.79;100676.78;5032173;28;20111;-62
2022/05/19 01:46:53;;;;;;;2.33;1.90;;;;;;;27.32;55.80;100668.56;5025676;28;20068;-62
2022/05/19 01:50:16;;;;;;;2.20;2.00;;;;;;;27.31;55.89;100664.16;5033236;28;20095;-62
2022/05/19 01:53:40;;;;;;;2.72;2.03;;;;;;;27.30;55.92;100661.69;5036367;28;20509;-62
2022/05/19 01:56:27;;;;;;;2.88;1.90;;;;;;;27.29;56.01;100671.78;5036421;28;20102;-62
2022/05/19 01:59:26;;;;;;;2.22;1.90;;;;;;;27.31;55.69;100671.56;5037006;28;20083;-62
2022/05/19 02:02:24;;;;;;;2.28;1.83;;;;;;;27.30;56.05;100676.19;5036235;28;20063;-62
2022/05/19 02:05:19;;;;;;;1.88;1.70;;;;;;;27.31;56.05;100677.03;5036911;28;20409;-62
2022/05/19 02:08:06;;;;;;;2.65;1.67;;;;;;;27.29;56.06;100662.72;5037080;28;20106;-62
2022/05/19 02:10:52;;;;;;;3.35;1.58;;;;;;;27.29;55.82;100668.22;5036126;28;20048;-62
2022/05/19 02:13:36;;;;;;;2.47;2.20;;;;;;;27.27;55.94;100668.47;5035777;28;20103;-62
2022/05/19 02:16:21;;;;;;;2.20;1.98;;;;;;;27.27;56.05;100662.16;5035991;28;20091;-62
2022/05/19 02:19:06;;;;;;;4.32;2.15;;;;;;;27.26;56.16;100661.34;5035620;28;20138;-62
2022/05/19 02:21:52;;;;;;;2.15;1.80;;;;;;;27.26;56.00;100666.81;5035689;28;20048;-62
2022/05/19 02:24:39;;;;;;;2.20;1.90;;;;;;;27.26;56.08;100668.69;5036853;28;20403;-62
2022/05/19 02:27:31;;;;;;;2.60;1.90;;;;;;;27.26;55.83;100665.97;5035843;28;20052;-62
2022/05/19 02:30:18;;;;;;;2.17;1.80;;;;;;;27.25;56.20;100669.78;5035648;28;20080;-62
2022/05/19 02:33:03;;;;;;;1.60;1.50;;;;;;;27.25;56.09;100669.78;5035615;28;20053;-62
2022/05/19 02:35:47;;;;;;;2.58;1.88;;;;;;;27.24;55.85;100662.66;5036634;28;20464;-62
2022/05/19 02:38:31;;;;;;;2.28;1.77;;;;;;;27.24;55.92;100668.13;5036373;28;20508;-62
2022/05/19 02:41:16;;;;;;;;;;;;;;;27.18;56.09;100669.91;5037248;28;20087;-62
2022/05/19 02:43:59;;;;;;;2.10;1.90;;;;;;;27.20;56.33;100667.78;5036254;28;19966;-62
2022/05/19 02:46:43;;;;;;;2.45;2.05;;;;;;;27.22;55.86;100664.78;5036489;28;20084;-62
2022/05/19 02:49:28;;;;;;;1.90;1.80;;;;;;;27.20;56.28;100665.03;5035922;28;20103;-62
2022/05/19 02:52:12;;;;;;;2.92;1.90;;;;;;;27.21;55.93;100669.44;5036124;28;20056;-62
2022/05/19 02:54:56;;;;;;;;;;;;;;;27.15;56.14;100680.50;5036407;28;20156;-62
2022/05/19 02:57:40;;;;;;;2.90;1.70;;;;;;;27.17;56.46;100678.38;5021579;28;20074;-62
2022/05/19 03:00:25;;;;;;;2.03;1.90;;;;;;;27.17;56.15;100673.72;5021009;28;20477;-62
2022/05/19 03:03:09;;;;;;;1.70;1.48;;;;;;;27.17;56.46;100681.94;5035021;28;20053;-62
2022/05/19 03:05:53;;;;;;;;;;;;;;;27.12;56.47;100681.81;5036571;28;20075;-62
2022/05/19 03:08:37;;;;;;;2.03;1.83;;;;;;;27.15;56.51;100683.25;5035932;28;20408;-62
2022/05/19 03:11:21;;;;;;;;;;;;;;;27.09;56.54;100682.28;5036160;28;20072;-62
2022/05/19 03:14:05;;;;;;;1.70;1.60;;;;;;;27.12;56.56;100676.34;5035647;28;19927;-62
2022/05/19 03:16:49;;;;;;;1.70;1.60;;;;;;;27.14;56.57;100676.97;5035896;28;20492;-62
2022/05/19 03:19:33;;;;;;;2.05;1.75;;;;;;;27.13;56.35;100675.28;5035889;28;20098;-62
2022/05/19 03:22:17;;;;;;;2.03;1.83;;;;;;;27.12;56.41;100673.63;5035844;28;20048;-62
2022/05/19 03:25:01;;;;;;;;;;;;;;;27.07;56.41;100675.38;5035905;28;20048;-62
2022/05/19 03:27:45;;;;;;;1.98;1.85;;;;;;;27.08;56.60;100669.69;5035667;28;20361;-62
2022/05/19 03:30:29;;;;;;;2.22;1.70;;;;;;;27.11;56.54;100673.84;5035654;28;20555;-62
2022/05/19 03:33:14;;;;;;;2.00;1.80;;;;;;;27.09;56.35;100678.72;5035481;28;20076;-63
2022/05/19 03:35:59;;;;;;;2.13;1.92;;;;;;;27.08;56.52;100677.88;5034547;28;20116;-62
2022/05/19 03:38:43;;;;;;;1.60;1.50;;;;;;;27.10;56.51;100674.91;5035356;28;20057;-62
2022/05/19 03:41:27;;;;;;;;;;;;;;;27.03;56.52;100680.53;5035893;28;20126;-62
2022/05/19 03:44:12;;;;;;;2.92;1.98;;;;;;;27.06;56.21;100682.78;5035123;28;20292;-62
2022/05/19 03:46:56;;;;;;;2.10;1.80;;;;;;;27.05;56.25;100672.91;5035651;28;20064;-62
2022/05/19 03:49:40;;;;;;;1.73;1.52;;;;;;;27.05;56.36;100664.69;5034889;28;20095;-62
2022/05/19 03:52:23;;;;;;;;;;;;;;;27.00;56.57;100663.75;5035674;28;20088;-62
2022/05/19 03:55:10;;;;;;;1.75;1.63;;;;;;;27.03;56.62;100666.84;5034143;28;19924;-62
2022/05/19 03:57:54;;;;;;;2.13;1.67;;;;;;;27.04;56.27;100670.41;5033834;28;20068;-63
2022/05/19 04:00:38;;;;;;;1.88;1.70;;;;;;;27.03;56.62;100675.06;5034794;28;20111;-62
2022/05/19 04:03:23;;;;;;;1.75;1.65;;;;;;;27.02;56.48;100673.38;5034766;28;20044;-62
2022/05/19 04:06:07;;;;;;;;;;;;;;;26.97;56.61;100680.63;5035308;28;20048;-62
2022/05/19 04:08:51;;;;;;;1.95;1.70;;;;;;;27.00;56.45;100681.00;5033768;28;19919;-62
2022/05/19 04:11:35;;;;;;;;;;;;;;;26.97;56.54;100688.03;5035316;28;20136;-62
2022/05/19 04:14:19;;;;;;;1.60;1.50;;;;;;;26.98;56.60;100691.34;5033740;28;20019;-62
2022/05/19 04:17:04;;;;;;;1.60;1.50;;;;;;;27.00;56.56;100693.84;5034784;28;20048;-62
2022/05/19 04:19:47;;;;;;;;;;;;;;;26.96;56.57;100691.84;5033747;28;20103;-62
2022/05/19 04:22:32;;;;;;;1.83;1.63;;;;;;;26.98;56.38;100693.25;5034617;28;20012;-62
2022/05/19 04:25:15;;;;;;;2.45;1.60;;;;;;;27.00;56.66;100700.16;5034332;28;20410;-62
2022/05/19 04:27:59;;;;;;;;;;;;;;;26.96;56.37;100708.25;5034841;28;20128;-62
2022/05/19 04:30:43;;;;;;;1.83;1.67;;;;;;;26.98;56.62;100706.09;5034268;28;19920;-63
2022/05/19 04:33:28;;;;;;;1.92;1.52;;;;;;;27.00;56.55;100705.63;5034120;28;20052;-62
2022/05/19 04:36:12;;;;;;;2.20;1.70;;;;;;;26.98;56.32;100702.28;5033665;28;20052;-63
2022/05/19 04:38:56;;;;;;;;;;;;;;;26.94;56.41;100705.75;5034392;28;20417;-62
2022/05/19 04:41:40;;;;;;;1.60;1.50;;;;;;;26.98;56.35;100706.91;5034621;28;20289;-62
2022/05/19 04:44:24;;;;;;;2.03;1.52;;;;;;;26.99;56.55;100714.91;5034313;28;20048;-62
2022/05/19 04:47:08;;;;;;;1.67;1.58;;;;;;;26.99;56.64;100709.44;5034103;28;20083;-63
2022/05/19 04:49:51;;;;;;;;;;;;;;;26.95;56.50;100717.53;5034171;28;20049;-62
2022/05/19 04:52:36;;;;;;;3.72;1.77;;;;;;;26.98;56.48;100718.72;5034115;28;20296;-62
2022/05/19 04:55:20;;;;;;;1.60;1.50;;;;;;;27.00;56.47;100715.75;5033803;28;20040;-62
2022/05/19 04:58:05;;;;;;;2.10;1.70;;;;;;;27.00;56.38;100719.31;5032933;28;20153;-63
2022/05/19 05:00:50;;;;;;;1.80;1.70;;;;;;;27.01;56.19;100718.22;5032988;28;20464;-62
2022/05/19 05:03:34;;;;;;;1.95;1.73;;;;;;;27.01;56.21;100717.41;5032973;28;20111;-62
2022/05/19 05:06:18;;;;;;;1.65;1.50;;;;;;;27.01;56.35;100723.69;5033778;28;20052;-62
2022/05/19 05:09:02;;;;;;;;;;;;;;;26.98;56.14;100726.91;5034083;28;20083;-62
2022/05/19 05:11:45;;;;;;;1.70;1.60;;;;;;;27.01;55.99;100729.16;5033847;28;19920;-62
2022/05/19 05:14:29;;;;;;;;;;;;;;;26.98;56.25;100721.44;5033999;28;20048;-62
2022/05/19 05:17:14;;;;;;;1.55;1.45;;;;;;;27.01;56.18;100729.16;5032581;28;19959;-62
2022/05/19 05:19:58;;;;;;;1.63;1.52;;;;;;;27.02;56.21;100730.84;5018685;28;20087;-62
2022/05/19 05:22:42;;;;;;;;;;;;;;;26.99;56.01;100725.84;5033946;28;20048;-62
2022/05/19 05:25:29;;;;;;;1.52;1.42;;;;;;;27.04;56.11;100728.72;5033053;28;19999;-62
2022/05/19 05:28:13;;;;;;;2.17;1.98;;;;;;;27.06;55.86;100732.03;5032516;28;20107;-63
2022/05/19 05:30:57;;;;;;;;;;;;;;;27.01;55.88;100734.66;5034148;28;20524;-62
2022/05/19 05:33:41;;;;;;;1.77;1.63;;;;;;;27.05;55.94;100735.00;5033223;28;19939;-62
2022/05/19 05:36:26;;;;;;;2.00;1.80;;;;;;;27.06;55.90;100740.25;5033467;28;20095;-62
2022/05/19 05:39:10;;;;;;;;;;;;;;;27.01;56.02;100748.31;5032743;28;20568;-62
2022/05/19 05:41:54;;;;;;;2.10;1.70;;;;;;;27.04;56.11;100750.59;5032673;28;20063;-62
2022/05/19 05:44:38;;;;;;;2.05;1.80;;;;;;;27.06;56.02;100744.88;5033261;28;20045;-62
2022/05/19 05:47:22;;;;;;;3.45;1.88;;;;;;;27.05;55.93;100749.53;5033387;28;20481;-63
2022/05/19 05:50:06;;;;;;;1.63;1.52;;;;;;;27.06;55.88;100759.41;5034124;28;20075;-64
2022/05/19 05:52:50;;;;;;;2.33;2.00;;;;;;;27.05;55.88;100757.75;5033332;28;20044;-64
2022/05/19 05:55:35;;;;;;;1.80;1.60;;;;;;;27.07;55.73;100750.13;5033343;28;20547;-64
2022/05/19 05:58:19;;;;;;;1.90;1.75;;;;;;;27.09;56.00;100763.56;5031957;28;20567;-64
2022/05/19 06:01:04;;;;;;;;;;;;;;;27.03;55.93;100765.38;5033660;28;20049;-64
2022/05/19 06:03:48;;;;;;;1.70;1.60;;;;;;;27.08;55.99;100770.09;5031974;28;19935;-64
2022/05/19 06:06:32;;;;;;;1.50;1.40;;;;;;;27.09;55.67;100771.78;5033163;28;20088;-64
2022/05/19 06:09:16;;;;;;;1.63;1.52;;;;;;;27.09;55.58;100771.78;5032986;28;20052;-63
2022/05/19 06:12:00;;;;;;;;;;;;;;;27.06;55.72;100772.25;5018920;28;20064;-64
2022/05/19 06:14:44;;;;;;;1.60;1.50;;;;;;;27.09;55.89;100775.34;5033006;28;19924;-64
2022/05/19 06:17:27;;;;;;;;;;;;;;;27.07;55.82;100777.50;5033254;28;20052;-64
2022/05/19 06:20:14;;;;;;;2.78;1.70;;;;;;;27.12;55.47;100763.94;5032811;28;19966;-64
2022/05/19 06:22:59;;;;;;;1.67;1.58;;;;;;;27.13;55.57;100765.59;5031768;28;20043;-63
2022/05/19 06:25:42;;;;;;;2.25;1.85;;;;;;;27.13;55.47;100762.88;5031869;28;20136;-64
2022/05/19 06:28:26;;;;;;;;;;;;;;;27.11;55.61;100773.19;5033028;28;20072;-64
2022/05/19 06:31:10;;;;;;;2.00;1.80;;;;;;;27.15;55.61;100788.13;5031736;28;19959;-64
2022/05/19 06:33:54;;;;;;;;;;;;;;;27.11;55.74;100775.94;5032294;28;20045;-64
2022/05/19 06:36:38;;;;;;;1.88;1.40;;;;;;;27.15;55.79;100768.94;5034405;28;19959;-64
2022/05/19 06:39:22;;;;;;;;;;;;;;;27.14;55.60;100777.41;5036882;28;20155;-64
2022/05/19 06:42:14;;;;;;;2.42;1.70;;;;;;;27.16;55.33;100781.56;5036334;28;19962;-65
2022/05/19 06:44:59;;;;;;;1.73;1.63;;;;;;;27.18;55.58;100773.09;5036335;28;20115;-64
2022/05/19 06:47:43;;;;;;;2.03;1.60;;;;;;;27.19;55.60;100769.31;5035720;28;20096;-64
2022/05/19 06:50:27;;;;;;;1.85;1.60;;;;;;;27.20;55.31;100780.00;5035486;28;20133;-64
2022/05/19 06:53:12;;;;;;;1.85;1.75;;;;;;;27.21;55.48;100789.88;5021117;28;20099;-64
2022/05/19 06:55:57;;;;;;;1.70;1.60;;;;;;;27.23;55.50;100808.81;5036334;28;20049;-64
2022/05/19 06:58:40;;;;;;;;;;;;;;;27.18;55.63;100792.25;5036527;28;20049;-63
2022/05/19 07:01:24;;;;;;;1.38;1.27;;;;;;;27.21;55.19;100805.50;5036168;28;20369;-64
2022/05/19 07:04:08;;;;;;;1.80;1.70;;;;;;;27.23;55.52;100793.19;5036182;28;20048;-63
2022/05/19 07:06:53;;;;;;;2.03;1.85;;;;;;;27.25;55.44;100793.81;5036152;28;20551;-64
2022/05/19 07:09:38;;;;;;;1.85;1.75;;;;;;;27.25;55.38;100796.56;5035877;28;20087;-64
2022/05/19 07:12:23;;;;;;;1.92;1.83;;;;;;;27.26;55.12;100800.97;5035751;28;20442;-63
2022/05/19 07:15:07;;;;;;;1.65;1.55;;;;;;;27.27;55.32;100804.50;5035913;28;20052;-64
2022/05/19 07:17:51;;;;;;;;;;;;;;;27.24;55.37;100799.53;5034985;28;20071;-64
2022/05/19 07:20:44;;;;;;;1.60;1.50;;;;;;;27.27;55.15;100799.88;5035642;28;20006;-64
2022/05/19 07:23:30;;;;;;;1.80;1.70;;;;;;;27.27;55.32;100799.88;5034884;28;20044;-64
2022/05/19 07:26:13;;;;;;;2.28;1.60;;;;;;;27.29;55.37;100803.22;5035434;28;20051;-64
2022/05/19 07:28:57;;;;;;;;;;;;;;;27.26;55.10;100803.69;5035814;28;20056;-64
2022/05/19 07:31:42;;;;;;;1.63;1.52;;;;;;;27.29;54.94;100802.34;5034422;28;19920;-64
2022/05/19 07:34:29;;;;;;;1.90;1.80;;;;;;;27.31;54.99;100798.31;5035256;28;20056;-64
2022/05/19 07:37:12;;;;;;;1.60;1.50;;;;;;;27.32;54.84;100790.94;5035267;28;20141;-64
2022/05/19 07:39:57;;;;;;;1.60;1.50;;;;;;;27.33;54.88;100801.63;5035075;28;20132;-64
2022/05/19 07:42:41;;;;;;;1.80;1.65;;;;;;;27.34;54.82;100794.28;5035441;28;20080;-64
2022/05/19 07:45:25;;;;;;;1.70;1.60;;;;;;;27.35;55.11;100796.78;5034431;28;20510;-64
2022/05/19 07:48:09;;;;;;;1.70;1.60;;;;;;;27.35;54.69;100785.84;5034689;28;20138;-64
2022/05/19 07:50:53;;;;;;;1.73;1.63;;;;;;;27.36;54.71;100792.97;5035013;28;20088;-64
2022/05/19 07:53:37;;;;;;;2.13;1.75;;;;;;;27.36;55.08;100790.22;5033856;28;20464;-64
2022/05/19 07:56:21;;;;;;;1.90;1.67;;;;;;;27.37;54.63;100789.16;5035006;28;20071;-64
2022/05/19 07:59:06;;;;;;;2.10;1.90;;;;;;;27.39;54.64;100791.63;5034085;28;20056;-64
2022/05/19 08:01:51;;;;;;;2.40;1.92;;;;;;;27.40;55.05;100799.63;5035088;28;20488;-64
2022/05/19 08:04:35;;;;;;;1.73;1.63;;;;;;;27.39;54.88;100787.00;5034979;28;20409;-64
2022/05/19 08:07:19;;;;;;;2.13;1.35;;;;;;;27.41;54.48;100789.50;5034864;28;20053;-64
2022/05/19 08:10:21;;;;;;;2.00;1.90;;;;;;;27.43;54.83;100777.22;5034617;28;20052;-64
2022/05/19 08:16:07;;;;;;;1.50;1.40;;;;;;;27.46;54.52;100786.88;5034832;28;20044;-64
2022/05/19 08:18:51;;;;;;;;;;;;;;;27.42;54.75;100786.50;5034819;28;20055;-64
2022/05/19 08:21:35;;;;;;;1.55;1.45;;;;;;;27.45;54.42;100786.06;5034432;28;19963;-64
2022/05/19 08:24:21;;;;;;;1.67;1.58;;;;;;;27.48;54.58;100792.94;5034332;28;20049;-64
2022/05/19 08:27:06;;;;;;;1.70;1.60;;;;;;;27.50;54.51;100783.41;5034601;28;20096;-64
2022/05/19 08:29:49;;;;;;;1.77;1.67;;;;;;;27.48;54.38;100788.31;5033198;28;20052;-64
2022/05/19 08:32:33;;;;;;;;;;;;;;;27.46;54.23;100787.72;5034631;28;20064;-64
2022/05/19 08:35:18;;;;;;;1.65;1.55;;;;;;;27.50;54.54;100799.03;5033376;28;19923;-63
2022/05/19 08:38:02;;;;;;;1.73;1.63;;;;;;;27.52;54.50;100796.88;5033636;28;20052;-64
2022/05/19 08:40:50;;;;;;;;;;;;;;;27.47;54.45;100794.84;5034509;28;20127;-64
2022/05/19 08:43:40;;;;;;;1.95;1.77;;;;;;;27.51;54.43;100787.81;5033011;28;19920;-64
2022/05/19 08:46:31;;;;;;;1.83;1.73;;;;;;;27.52;54.23;100786.72;5034224;28;20063;-63
2022/05/19 08:49:20;;;;;;;1.52;1.42;;;;;;;27.53;54.18;100787.56;5032611;28;20099;-64
2022/05/19 08:52:08;;;;;;;1.70;1.60;;;;;;;27.53;54.13;100784.84;5033907;28;20056;-64
2022/05/19 08:54:54;;;;;;;2.17;1.60;;;;;;;27.53;54.08;100777.44;5032845;28;20135;-63
2022/05/19 08:58:09;;;;;;;2.10;1.90;;;;;;;27.53;54.08;100766.47;5032713;28;20052;-64
2022/05/19 09:00:56;;;;;;;2.10;1.90;;;;;;;27.51;54.38;100765.09;5032546;28;20068;-63
2022/05/19 09:04:12;;;;;;;1.90;1.70;;;;;;;27.52;54.09;100764.81;5032912;28;20129;-64
2022/05/19 09:10:30;;;;;;;2.00;1.90;;;;;;;27.51;54.41;100779.59;5033570;28;20124;-64
2022/05/19 09:13:16;;;;;;;1.88;1.75;;;;;;;27.51;54.21;100774.13;5034021;28;20099;-64
2022/05/19 09:16:13;;;;;;;1.88;1.70;;;;;;;27.52;54.26;100773.03;5033460;28;20416;-64
2022/05/19 09:19:15;;;;;;;2.08;1.80;;;;;;;27.52;54.48;100770.28;5032401;28;20046;-64
2022/05/19 09:22:20;;;;;;;1.80;1.70;;;;;;;27.51;54.14;100754.94;5032688;28;20048;-64
2022/05/19 09:25:07;;;;;;;2.05;1.80;;;;;;;27.52;54.48;100753.06;5032646;28;20068;-64
2022/05/19 09:27:51;;;;;;;2.05;1.85;;;;;;;27.52;54.35;100751.13;5033249;28;20127;-64
2022/05/19 09:30:39;;;;;;;2.03;1.90;;;;;;;27.53;54.24;100755.53;5033321;28;20421;-64
2022/05/19 09:33:34;;;;;;;2.33;1.75;;;;;;;27.54;54.29;100757.19;5033235;28;20056;-64
2022/05/19 09:36:19;;;;;;;2.00;1.90;;;;;;;27.54;54.05;100754.44;5032196;28;20405;-63
2022/05/19 09:39:03;;;;;;;1.83;1.63;;;;;;;27.55;54.31;100756.13;5033151;28;20115;-64
2022/05/19 09:41:51;;;;;;;3.13;1.70;;;;;;;27.58;54.13;100750.16;5032480;28;20117;-63
2022/05/19 09:44:39;;;;;;;1.60;1.50;;;;;;;27.57;54.33;100743.03;5033329;28;20052;-63
2022/05/19 09:47:30;;;;;;;1.90;1.75;;;;;;;27.59;53.95;100743.63;5032699;28;20047;-63
2022/05/19 09:50:23;;;;;;;2.10;1.92;;;;;;;27.60;53.93;100739.78;5032364;28;20091;-63
2022/05/19 09:53:11;;;;;;;3.05;1.73;;;;;;;27.61;54.16;100729.69;5032972;28;20119;-64
2022/05/19 09:55:57;;;;;;;2.00;1.80;;;;;;;27.60;53.91;100728.84;5032043;28;20540;-63
2022/05/19 09:58:45;;;;;;;1.88;1.77;;;;;;;27.62;54.22;100737.63;5032469;28;20172;-63
2022/05/19 10:01:33;;;;;;;1.63;1.40;;;;;;;27.63;53.91;100742.03;5032049;28;20048;-63
2022/05/19 10:04:32;;;;;;;2.30;1.80;;;;;;;27.64;54.23;100740.16;5032007;28;20106;-64
2022/05/19 10:07:36;;;;;;;1.60;1.50;;;;;;;27.64;54.18;100730.00;5033193;28;20092;-64
2022/05/19 10:10:27;;;;;;;1.92;1.83;;;;;;;27.66;53.95;100727.88;5033735;28;20107;-63
2022/05/19 10:13:12;;;;;;;2.17;2.00;;;;;;;27.65;54.13;100725.38;5035785;28;20099;-63
2022/05/19 10:16:12;;;;;;;2.35;2.15;;;;;;;27.65;54.18;100726.22;5036792;28;20555;-64
2022/05/19 10:19:10;;;;;;;1.77;1.63;;;;;;;27.65;54.28;100720.75;5036999;28;20129;-64
2022/05/19 10:22:06;;;;;;;1.60;1.50;;;;;;;27.68;54.08;100720.25;5035818;28;20048;-63
2022/05/19 10:25:14;;;;;;;3.15;1.83;;;;;;;27.70;53.72;100712.59;5036987;28;20048;-64
2022/05/19 10:31:57;;;;;;;1.90;1.77;;;;;;;27.73;54.08;100703.91;5036600;28;20109;-63
2022/05/19 10:35:07;;;;;;;2.75;2.00;;;;;;;27.74;54.01;100702.84;5035444;28;20053;-63
2022/05/19 10:38:10;;;;;;;1.90;1.80;;;;;;;27.75;53.61;100701.78;5036377;28;20128;-64
2022/05/19 10:41:05;;;;;;;2.78;1.70;;;;;;;27.77;53.91;100694.16;5036405;28;20048;-63
2022/05/19 10:44:17;;;;;;;2.33;2.00;;;;;;;27.78;53.67;100693.06;5035594;28;20048;-63
2022/05/19 10:47:11;;;;;;;2.10;1.85;;;;;;;27.80;53.64;100690.91;5036468;28;20459;-63
2022/05/19 10:50:13;;;;;;;2.88;2.15;;;;;;;27.81;53.74;100700.78;5035995;28;20488;-64
2022/05/19 10:53:12;;;;;;;1.88;1.77;;;;;;;27.82;53.79;100683.25;5036121;28;20051;-63
2022/05/19 10:56:25;;;;;;;2.35;2.15;;;;;;;27.84;53.78;100686.59;5036381;28;20619;-63
2022/05/19 10:59:30;;;;;;;2.03;1.90;;;;;;;27.86;53.58;100687.19;5035895;28;20087;-64
2022/05/19 11:02:30;;;;;;;2.22;2.03;;;;;;;27.85;53.78;100677.31;5035976;28;20043;-64
2022/05/19 11:05:37;;;;;;;1.95;1.85;;;;;;;27.88;53.61;100676.81;5035914;28;20614;-63
2022/05/19 11:08:20;;;;;;;2.53;2.00;;;;;;;27.89;53.72;100670.25;5021027;28;20107;-64
2022/05/19 11:11:09;;;;;;;1.83;1.65;;;;;;;27.92;53.57;100669.75;5035767;28;20044;-63
2022/05/19 11:14:08;;;;;;;2.20;1.90;;;;;;;27.94;53.29;100664.84;5035941;28;20473;-63
2022/05/19 11:16:55;;;;;;;3.65;2.03;;;;;;;27.96;53.55;100664.63;5035809;28;20066;-64
2022/05/19 11:19:46;;;;;;;2.08;1.98;;;;;;;27.98;53.39;100670.66;5035573;28;20513;-63
2022/05/19 11:22:33;;;;;;;2.20;2.03;;;;;;;28.00;53.03;100658.38;5034246;28;20060;-63
2022/05/19 11:28:39;;;;;;;2.03;1.75;;;;;;;28.05;53.06;100652.16;5034844;28;20096;-63
2022/05/19 11:31:52;;;;;;;2.00;1.90;;;;;;;28.09;52.77;100656.91;5034637;28;20044;-64
2022/05/19 11:34:53;;;;;;;3.15;1.85;;;;;;;28.12;52.72;100650.91;5035377;28;20559;-63
2022/05/19 11:37:52;;;;;;;1.92;1.80;;;;;;;28.16;52.86;100654.00;5034528;28;20044;-63
2022/05/19 11:40:49;;;;;;;2.25;2.05;;;;;;;28.18;52.74;100649.94;5035478;28;20095;-63
2022/05/19 11:44:00;;;;;;;2.00;1.90;;;;;;;28.22;52.31;100650.28;5035189;28;20044;-64
2022/05/19 11:46:58;;;;;;;2.60;1.80;;;;;;;28.25;52.35;100645.09;5034606;28;20144;-64
2022/05/19 11:56:24;;;;;;;2.17;1.92;;;;;;;28.30;52.19;100650.66;5034825;28;20053;-62
2022/05/19 11:59:10;;;;;;;2.30;2.10;;;;;;;28.34;52.34;100646.38;5020322;28;20162;-62
2022/05/19 12:01:54;;;;;;;2.30;2.10;;;;;;;28.38;51.95;100638.47;5033803;28;20071;-62
2022/05/19 12:04:38;;;;;;;2.08;1.90;;;;;;;28.42;51.77;100645.94;5034741;28;20253;-62
2022/05/19 12:07:37;;;;;;;2.03;1.83;;;;;;;28.45;51.63;100642.69;5034947;28;20188;-62
2022/05/19 12:10:48;;;;;;;3.15;2.10;;;;;;;28.46;51.91;100636.13;5034939;28;20507;-63
2022/05/19 12:13:32;;;;;;;2.90;2.08;;;;;;;28.44;51.97;100643.78;5015373;28;20048;-62
2022/05/19 12:16:52;;;;;;;2.08;1.95;;;;;;;28.42;51.66;100637.72;5034852;28;20056;-62
2022/05/19 12:19:51;;;;;;;2.00;1.80;;;;;;;28.39;51.61;100632.75;5034468;28;20052;-61
2022/05/19 12:22:39;;;;;;;2.85;2.05;;;;;;;28.40;51.77;100634.41;5034428;28;20053;-62
2022/05/19 12:25:31;;;;;;;2.30;2.10;;;;;;;28.46;51.90;100627.09;5033710;28;20056;-62
2022/05/19 12:28:18;;;;;;;2.20;2.00;;;;;;;28.51;51.67;100622.50;5033225;28;20103;-62
2022/05/19 12:34:08;;;;;;;1.90;1.80;;;;;;;28.62;51.36;100613.34;5032595;28;20045;-62
2022/05/19 12:37:15;;;;;;;2.10;1.95;;;;;;;28.70;51.06;100615.66;5033840;28;20053;-62
2022/05/19 12:40:19;;;;;;;2.28;2.08;;;;;;;28.77;50.76;100610.78;5012183;28;20562;-62
2022/05/19 12:43:26;;;;;;;2.33;2.10;;;;;;;28.84;50.58;100616.13;5034268;28;20079;-62
2022/05/19 12:46:13;;;;;;;2.33;2.13;;;;;;;28.87;50.70;100616.41;5019828;28;20555;-62
2022/05/19 12:49:17;;;;;;;2.00;1.90;;;;;;;28.95;50.35;100602.28;5033860;28;20052;-62
2022/05/19 12:52:15;;;;;;;3.17;2.13;;;;;;;29.01;50.09;100605.91;5033134;28;20072;-62
2022/05/19 12:55:27;;;;;;;2.30;2.10;;;;;;;29.05;49.79;100613.38;5032979;28;20071;-62
2022/05/19 12:58:41;;;;;;;2.05;1.85;;;;;;;29.11;49.83;100606.88;5034020;28;20052;-62
2022/05/19 13:01:36;;;;;;;2.40;2.20;;;;;;;29.17;49.62;100605.84;5033750;28;20048;-62
2022/05/19 13:04:36;;;;;;;2.17;2.00;;;;;;;29.21;49.57;100607.00;5032963;28;20124;-62
2022/05/19 13:07:34;;;;;;;2.38;2.17;;;;;;;29.24;49.42;100611.97;5033931;28;20405;-62
2022/05/19 13:10:53;;;;;;;3.55;2.33;;;;;;;29.28;49.20;100615.84;5032825;28;20044;-61
2022/05/19 13:13:42;;;;;;;2.75;2.10;;;;;;;29.32;49.15;100608.78;5016177;28;20132;-61
2022/05/19 13:16:29;;;;;;;3.80;2.15;;;;;;;29.35;48.98;100607.44;5018809;28;20095;-61
2022/05/19 13:19:19;;;;;;;2.25;2.05;;;;;;;29.38;48.70;100606.91;5033534;28;20052;-61
2022/05/19 13:22:06;;;;;;;2.33;2.05;;;;;;;29.40;48.77;100611.06;5018506;28;20075;-62
2022/05/19 13:24:50;;;;;;;2.45;2.00;;;;;;;29.40;48.84;100605.56;5032602;28;20099;-62
2022/05/19 13:30:43;;;;;;;3.30;2.10;;;;;;;29.41;48.74;100604.47;5033586;28;20142;-62
2022/05/19 13:33:36;;;;;;;2.85;2.20;;;;;;;29.41;48.64;100607.22;5033470;28;20134;-61
2022/05/19 13:36:32;;;;;;;3.88;2.30;;;;;;;29.39;48.76;100601.16;5032371;28;20595;-61
2022/05/19 13:39:18;;;;;;;2.20;2.00;;;;;;;29.39;48.71;100592.94;5033585;28;20511;-62
2022/05/19 13:42:08;;;;;;;2.58;2.28;;;;;;;29.42;48.55;100589.66;5033453;28;20063;-61